Time,TemperatureF,DewpointF,PressureIn,WindDirection,WindDirectionDegrees,WindSpeedMPH,WindSpeedGustMPH,Humidity,HourlyPrecipIn,Conditions,Clouds,dailyrainin,SoftwareType,DateUTC
2013-11-28 00:00:00,15.9,14.0,30.21,NW,315,4.0,10.0,92,0.00,,,-99.99,WeatherLink 5.6,2013-11-28 05:00:00,
2013-11-28 00:30:00,15.2,13.3,30.21,NW,315,5.0,10.0,92,0.00,,,-99.99,WeatherLink 5.6,2013-11-28 05:30:00,
2013-11-28 01:00:00,15.1,13.2,30.21,NW,315,7.0,15.0,92,0.00,,,-99.99,WeatherLink 5.6,2013-11-28 06:00:00,
2013-11-28 01:30:00,14.4,12.5,30.22,NW,315,5.0,11.0,92,0.00,,,-99.99,WeatherLink 5.6,2013-11-28 06:30:00,
2013-11-28 02:00:00,14.6,12.7,30.23,NW,315,6.0,12.0,92,0.00,,,-99.99,WeatherLink 5.6,2013-11-28 07:00:00,
2013-11-28 02:30:00,14.0,11.9,30.24,NW,315,5.0,9.0,91,0.00,,,-99.99,WeatherLink 5.6,2013-11-28 07:30:00,
2013-11-28 03:00:00,13.8,11.7,30.25,NW,315,4.0,9.0,91,0.00,,,-99.99,WeatherLink 5.6,2013-11-28 08:00:00,
2013-11-28 03:30:00,13.5,11.4,30.26,NW,315,2.0,5.0,91,0.00,,,-99.99,WeatherLink 5.6,2013-11-28 08:30:00,
2013-11-28 04:00:00,13.4,11.3,30.26,NW,315,3.0,5.0,91,0.00,,,-99.99,WeatherLink 5.6,2013-11-28 09:00:00,
2013-11-28 04:30:00,13.4,11.3,30.27,NW,315,3.0,5.0,91,0.00,,,-99.99,WeatherLink 5.6,2013-11-28 09:30:00,
2013-11-28 05:00:00,13.2,11.1,30.29,NW,315,3.0,6.0,91,0.00,,,-99.99,WeatherLink 5.6,2013-11-28 10:00:00,
2013-11-28 05:30:00,13.2,11.1,30.31,WNW,292,3.0,6.0,91,0.00,,,-99.99,WeatherLink 5.6,2013-11-28 10:30:00,
2013-11-28 06:00:00,13.4,11.3,30.32,WNW,292,3.0,5.0,91,0.00,,,-99.99,WeatherLink 5.6,2013-11-28 11:00:00,
2013-11-28 06:30:00,13.6,11.5,30.33,West,270,3.0,6.0,91,0.00,,,-99.99,WeatherLink 5.6,2013-11-28 11:30:00,
2013-11-28 07:00:00,13.5,11.4,30.35,WNW,292,2.0,4.0,91,0.00,,,-99.99,WeatherLink 5.6,2013-11-28 12:00:00,
2013-11-28 07:30:00,14.0,11.9,30.34,West,270,2.0,4.0,91,0.00,,,-99.99,WeatherLink 5.6,2013-11-28 12:30:00,
2013-11-28 08:00:00,15.0,13.1,30.36,North,-999,0.0,0.0,92,0.00,,,-99.99,WeatherLink 5.6,2013-11-28 13:00:00,
2013-11-28 08:30:00,16.4,14.5,30.36,North,-999,0.0,0.0,92,0.00,,,-99.99,WeatherLink 5.6,2013-11-28 13:30:00,
2013-11-28 09:00:00,18.0,16.1,30.37,North,-999,0.0,0.0,92,0.00,,,-99.99,WeatherLink 5.6,2013-11-28 14:00:00,
2013-11-28 09:30:00,18.8,16.9,30.37,North,-999,0.0,0.0,92,0.00,,,-99.99,WeatherLink 5.6,2013-11-28 14:30:00,
2013-11-28 10:00:00,19.8,17.9,30.37,North,-999,0.0,0.0,92,0.00,,,-99.99,WeatherLink 5.6,2013-11-28 15:00:00,
2013-11-28 10:30:00,21.2,19.2,30.37,North,-999,0.0,0.0,92,0.01,,,-99.99,WeatherLink 5.6,2013-11-28 15:30:00,
2013-11-28 11:00:00,22.0,20.0,30.37,North,-999,0.0,0.0,92,0.02,,,-99.99,WeatherLink 5.6,2013-11-28 16:00:00,
2013-11-28 11:30:00,24.0,22.0,30.36,North,-999,0.0,0.0,92,0.02,,,-99.99,WeatherLink 5.6,2013-11-28 16:30:00,
2013-11-28 12:00:00,24.2,22.0,30.34,SE,135,0.0,6.0,91,0.02,,,-99.99,WeatherLink 5.6,2013-11-28 17:00:00,
2013-11-28 12:30:00,24.8,22.5,30.33,SSW,202,2.0,7.0,91,0.01,,,-99.99,WeatherLink 5.6,2013-11-28 17:30:00,
2013-11-28 13:00:00,26.0,23.5,30.32,South,180,1.0,7.0,90,0.00,,,-99.99,WeatherLink 5.6,2013-11-28 18:00:00,
2013-11-28 13:30:00,26.2,23.4,30.32,SSW,202,3.0,10.0,89,0.01,,,-99.99,WeatherLink 5.6,2013-11-28 18:30:00,
2013-11-28 14:00:00,27.2,24.7,30.30,South,180,1.0,7.0,90,0.01,,,-99.99,WeatherLink 5.6,2013-11-28 19:00:00,
2013-11-28 14:30:00,27.2,23.6,30.30,SSW,202,5.0,14.0,86,0.00,,,-99.99,WeatherLink 5.6,2013-11-28 19:30:00,
2013-11-28 15:00:00,27.6,23.7,30.30,South,180,7.0,15.0,85,0.00,,,-99.99,WeatherLink 5.6,2013-11-28 20:00:00,
2013-11-28 15:30:00,28.3,23.2,30.30,South,180,7.0,15.0,81,0.00,,,-99.99,WeatherLink 5.6,2013-11-28 20:30:00,
2013-11-28 16:00:00,28.5,23.4,30.30,South,180,6.0,15.0,81,0.00,,,-99.99,WeatherLink 5.6,2013-11-28 21:00:00,
2013-11-28 16:30:00,28.2,22.8,30.32,South,180,6.0,14.0,80,0.00,,,-99.99,WeatherLink 5.6,2013-11-28 21:30:00,
2013-11-28 17:00:00,27.5,22.4,30.32,South,180,8.0,15.0,81,0.00,,,-99.99,WeatherLink 5.6,2013-11-28 22:00:00,
2013-11-28 17:30:00,27.4,22.3,30.32,South,180,7.0,16.0,81,0.00,,,-99.99,WeatherLink 5.6,2013-11-28 22:30:00,
2013-11-28 18:00:00,27.4,22.0,30.33,South,180,9.0,16.0,80,0.00,,,-99.99,WeatherLink 5.6,2013-11-28 23:00:00,
2013-11-28 18:30:00,27.5,21.2,30.32,South,180,11.0,22.0,77,0.00,,,-99.99,WeatherLink 5.6,2013-11-28 23:30:00,
2013-11-28 19:00:00,27.7,20.8,30.32,South,180,12.0,23.0,75,0.00,,,-99.99,WeatherLink 5.6,2013-11-29 00:00:00,
2013-11-28 19:30:00,27.8,20.6,30.33,South,180,12.0,21.0,74,0.00,,,-99.99,WeatherLink 5.6,2013-11-29 00:30:00,
2013-11-28 20:00:00,27.8,20.6,30.33,South,180,12.0,23.0,74,0.00,,,-99.99,WeatherLink 5.6,2013-11-29 01:00:00,
2013-11-28 20:30:00,27.8,20.3,30.33,South,180,13.0,23.0,73,0.00,,,-99.99,WeatherLink 5.6,2013-11-29 01:30:00,
2013-11-28 21:00:00,27.4,20.2,30.36,South,180,8.0,18.0,74,0.00,,,-99.99,WeatherLink 5.6,2013-11-29 02:00:00,
2013-11-28 21:30:00,26.8,19.9,30.37,South,180,3.0,9.0,75,0.00,,,-99.99,WeatherLink 5.6,2013-11-29 02:30:00,
2013-11-28 22:00:00,27.6,19.1,30.38,SSW,202,1.0,4.0,70,0.00,,,-99.99,WeatherLink 5.6,2013-11-29 03:00:00,
2013-11-28 22:30:00,29.9,16.9,30.37,SW,225,2.0,6.0,58,0.00,,,-99.99,WeatherLink 5.6,2013-11-29 03:30:00,
2013-11-28 23:00:00,30.2,16.8,30.37,SW,225,0.0,6.0,57,0.00,,,-99.99,WeatherLink 5.6,2013-11-29 04:00:00,
2013-11-28 23:30:00,31.6,15.5,30.37,WSW,247,2.0,9.0,51,0.00,,,-99.99,WeatherLink 5.6,2013-11-29 04:30:00,